createdAt,value
2023-03-04T00:02:18.457Z,25.47
2023-03-04T00:04:46.242Z,24.97
2023-03-04T00:07:16.879Z,24.70
2023-03-04T00:09:46.045Z,25.50
2023-03-04T00:12:15.218Z,25.67
2023-03-04T00:14:42.985Z,26.53
2023-03-04T00:17:10.915Z,26.17
2023-03-04T00:19:38.606Z,25.37
2023-03-04T00:22:06.410Z,26.40
2023-03-04T00:24:35.008Z,25.47
2023-03-04T00:27:02.768Z,25.23
2023-03-04T00:29:31.909Z,26.03
2023-03-04T00:31:59.809Z,25.10
2023-03-04T00:34:27.650Z,27.07
2023-03-04T00:37:01.115Z,26.23
2023-03-04T00:39:29.131Z,27.43
2023-03-04T00:41:57.231Z,27.87
2023-03-04T00:44:24.984Z,28.67
2023-03-04T00:46:54.079Z,27.43
2023-03-04T00:49:22.149Z,27.47
2023-03-04T00:51:50.173Z,27.17
2023-03-04T00:54:17.888Z,27.33
2023-03-04T00:56:45.610Z,25.67
2023-03-04T00:59:13.358Z,26.63
2023-03-04T01:01:41.820Z,28.43
2023-03-04T01:04:10.944Z,27.67
2023-03-04T01:06:38.738Z,26.13
2023-03-04T01:09:06.614Z,26.33
2023-03-04T01:11:34.322Z,28.77
2023-03-04T01:14:02.093Z,27.70
2023-03-04T01:16:29.907Z,26.20
2023-03-04T01:18:57.642Z,25.50
2023-03-04T01:21:26.877Z,27.83
2023-03-04T01:23:56.721Z,25.70
2023-03-04T01:26:24.528Z,27.03
2023-03-04T01:28:53.129Z,27.10
2023-03-04T01:31:20.948Z,25.33
2023-03-04T01:33:48.737Z,27.17
2023-03-04T01:36:16.513Z,32.40
2023-03-04T01:38:46.220Z,28.50
2023-03-04T01:41:15.223Z,27.20
2023-03-04T01:43:43.251Z,23.77
2023-03-04T01:46:15.082Z,26.23
2023-03-04T01:48:43.343Z,24.20
2023-03-04T01:51:15.469Z,26.70
2023-03-04T01:53:45.441Z,26.27
2023-03-04T01:56:20.060Z,27.53
2023-03-04T01:59:08.021Z,25.83
2023-03-04T02:01:37.485Z,26.43
2023-03-04T02:04:07.660Z,24.47
2023-03-04T02:06:36.982Z,25.90
2023-03-04T02:09:05.921Z,24.63
2023-03-04T02:11:36.814Z,26.00
2023-03-04T02:14:05.222Z,25.70
2023-03-04T02:16:33.721Z,26.70
2023-03-04T02:19:02.085Z,27.67
2023-03-04T02:21:31.603Z,27.07
2023-03-04T02:24:07.829Z,25.83
2023-03-04T02:26:37.619Z,25.90
2023-03-04T02:29:05.728Z,25.93
2023-03-04T02:31:36.174Z,25.80
2023-03-04T02:34:08.111Z,27.33
2023-03-04T02:36:37.690Z,25.37
2023-03-04T02:39:09.231Z,27.27
2023-03-04T02:41:39.085Z,25.80
2023-03-04T02:44:18.510Z,25.33
2023-03-04T02:46:46.401Z,27.93
2023-03-04T02:49:14.775Z,26.37
2023-03-04T02:51:42.541Z,26.93
2023-03-04T02:54:16.949Z,27.53
2023-03-04T02:56:50.944Z,27.07
2023-03-04T02:59:19.323Z,28.00
2023-03-04T03:01:47.713Z,26.57
2023-03-04T03:04:16.574Z,27.33
2023-03-04T03:06:45.738Z,25.90
2023-03-04T03:09:13.819Z,26.70
2023-03-04T03:11:41.595Z,27.07
2023-03-04T03:14:11.566Z,28.93
2023-03-04T03:16:39.885Z,27.53
2023-03-04T03:19:07.935Z,27.13
2023-03-04T03:21:37.534Z,27.57
2023-03-04T03:24:05.562Z,26.83
2023-03-04T03:26:33.420Z,24.93
2023-03-04T03:29:01.133Z,27.53
2023-03-04T03:31:31.049Z,26.53
2023-03-04T03:33:58.828Z,27.47
2023-03-04T03:36:28.211Z,26.07
2023-03-04T03:38:55.984Z,27.63
2023-03-04T03:41:23.785Z,26.97
2023-03-04T03:43:51.490Z,26.43
2023-03-04T03:46:19.192Z,26.60
2023-03-04T03:48:48.271Z,25.57
2023-03-04T03:51:16.362Z,28.07
2023-03-04T03:53:44.094Z,26.77
2023-03-04T03:56:11.866Z,26.40
2023-03-04T03:58:39.601Z,24.53
2023-03-04T04:01:07.400Z,25.10
2023-03-04T04:03:35.199Z,27.67
2023-03-04T04:06:04.590Z,26.73
2023-03-04T04:08:33.356Z,27.87
2023-03-04T04:11:01.094Z,26.07
2023-03-04T04:13:28.794Z,26.93
2023-03-04T04:15:56.527Z,26.43
2023-03-04T04:18:25.826Z,26.70
2023-03-04T04:20:54.775Z,27.67
2023-03-04T04:23:24.250Z,25.53
2023-03-04T04:25:52.023Z,26.63
2023-03-04T04:28:19.964Z,27.17
2023-03-04T04:30:47.774Z,26.03
2023-03-04T04:33:15.691Z,25.87
2023-03-04T04:35:43.716Z,26.07
2023-03-04T04:38:12.283Z,25.87
2023-03-04T04:40:42.915Z,26.60
2023-03-04T04:43:10.654Z,27.23
2023-03-04T04:45:38.373Z,27.47
2023-03-04T04:48:06.323Z,27.00
2023-03-04T04:50:34.052Z,25.33
2023-03-04T04:53:01.846Z,26.53
2023-03-04T04:55:29.583Z,26.20
2023-03-04T04:57:58.605Z,26.70
2023-03-04T05:00:26.392Z,25.57
2023-03-04T05:02:54.108Z,28.00
2023-03-04T05:05:21.829Z,28.70
2023-03-04T05:07:49.573Z,28.43
2023-03-04T05:10:17.523Z,27.27
2023-03-04T05:12:45.694Z,27.63
2023-03-04T05:15:14.730Z,28.50
2023-03-04T05:17:42.450Z,27.53
2023-03-04T05:20:11.469Z,26.80
2023-03-04T05:22:39.206Z,27.20
2023-03-04T05:25:08.009Z,27.70
2023-03-04T05:27:35.778Z,27.30
2023-03-04T05:30:03.592Z,27.93
2023-03-04T05:32:32.769Z,26.17
2023-03-04T05:35:00.533Z,26.73
2023-03-04T05:37:28.235Z,27.23
2023-03-04T05:39:55.961Z,26.70
2023-03-04T05:42:23.699Z,27.10
2023-03-04T05:44:51.429Z,26.43
2023-03-04T05:47:19.148Z,25.97
2023-03-04T05:49:48.210Z,26.20
2023-03-04T05:52:15.934Z,26.50
2023-03-04T05:54:43.689Z,27.40
2023-03-04T05:57:13.865Z,25.90
2023-03-04T05:59:44.614Z,28.03
2023-03-04T06:02:13.003Z,28.13
2023-03-04T06:04:40.709Z,27.73
2023-03-04T06:07:09.800Z,27.00
2023-03-04T06:09:37.866Z,27.93
2023-03-04T06:12:05.743Z,27.27
2023-03-04T06:14:33.539Z,27.53
2023-03-04T06:17:01.275Z,26.80
2023-03-04T06:19:29.030Z,27.20
2023-03-04T06:21:56.729Z,28.67
2023-03-04T06:24:26.024Z,28.60
2023-03-04T06:26:53.848Z,28.03
2023-03-04T06:29:21.769Z,28.33
2023-03-04T06:31:49.532Z,28.27
2023-03-04T06:34:17.366Z,26.70
2023-03-04T06:36:45.346Z,28.23
2023-03-04T06:39:13.133Z,28.60
2023-03-04T06:41:42.253Z,27.33
2023-03-04T06:44:10.025Z,29.00
2023-03-04T06:46:37.861Z,27.37
2023-03-04T06:49:05.628Z,28.60
2023-03-04T06:51:33.454Z,28.53
2023-03-04T06:54:01.152Z,28.63
2023-03-04T06:56:28.881Z,26.33
2023-03-04T06:58:57.990Z,27.80
2023-03-04T07:01:27.251Z,29.03
2023-03-04T07:03:56.233Z,29.17
2023-03-04T07:06:27.187Z,28.70
2023-03-04T07:08:55.612Z,29.80
2023-03-04T07:11:24.279Z,28.80
2023-03-04T07:13:52.538Z,31.53
2023-03-04T07:16:23.253Z,29.90
2023-03-04T07:18:51.304Z,29.70
2023-03-04T07:21:19.368Z,32.13
2023-03-04T07:23:47.447Z,33.10
2023-03-04T07:26:15.146Z,31.37
2023-03-04T07:28:43.411Z,30.80
2023-03-04T07:31:23.578Z,31.67
2023-03-04T07:33:52.023Z,32.27
2023-03-04T07:36:20.656Z,30.57
2023-03-04T07:38:50.399Z,31.13
2023-03-04T07:41:19.265Z,30.83
2023-03-04T07:43:46.984Z,33.47
2023-03-04T07:46:15.187Z,35.00
2023-03-04T07:48:44.481Z,36.47
2023-03-04T07:51:14.151Z,35.63
2023-03-04T07:53:43.526Z,36.10
2023-03-04T07:56:14.218Z,35.20
2023-03-04T07:58:41.902Z,34.93
2023-03-04T08:01:11.889Z,35.17
2023-03-04T08:03:39.790Z,36.00
2023-03-04T08:06:10.041Z,34.73
2023-03-04T08:08:38.458Z,34.20
2023-03-04T08:11:07.091Z,33.60
2023-03-04T08:13:35.331Z,34.37
2023-03-04T08:16:03.431Z,32.73
2023-03-04T08:18:31.668Z,32.53
2023-03-04T08:20:59.347Z,31.43
2023-03-04T08:23:28.477Z,31.23
2023-03-04T08:25:56.218Z,31.00
2023-03-04T08:28:23.931Z,30.47
2023-03-04T08:30:54.867Z,29.93
2023-03-04T08:33:22.592Z,31.53
2023-03-04T08:35:50.478Z,29.27
2023-03-04T08:38:18.168Z,29.47
2023-03-04T08:40:47.262Z,28.67
2023-03-04T08:43:14.969Z,28.47
2023-03-04T08:45:42.673Z,27.43
2023-03-04T08:48:10.404Z,26.97
2023-03-04T08:50:38.089Z,26.60
2023-03-04T08:53:05.834Z,25.30
2023-03-04T08:55:33.518Z,26.70
2023-03-04T08:58:02.656Z,26.87
2023-03-04T09:00:30.430Z,26.20
2023-03-04T09:02:58.131Z,24.20
2023-03-04T09:05:25.831Z,26.43
2023-03-04T09:07:54.158Z,25.17
2023-03-04T09:10:21.934Z,26.60
2023-03-04T09:12:49.659Z,24.93
2023-03-04T09:15:19.082Z,24.67
2023-03-04T09:17:46.947Z,23.40
2023-03-04T09:20:14.905Z,22.93
2023-03-04T09:22:43.629Z,22.63
2023-03-04T09:25:14.793Z,22.37
2023-03-04T09:27:43.333Z,21.73
2023-03-04T09:30:12.291Z,22.87
2023-03-04T09:32:41.716Z,21.03
2023-03-04T09:35:10.026Z,19.83
2023-03-04T09:37:40.963Z,20.63
2023-03-04T09:40:15.093Z,20.90
2023-03-04T09:42:50.892Z,22.83
2023-03-04T09:45:21.697Z,22.17
2023-03-04T09:47:53.882Z,20.93
2023-03-04T09:50:23.066Z,20.97
2023-03-04T09:53:05.421Z,20.33
2023-03-04T09:55:38.196Z,18.93
2023-03-04T09:58:15.996Z,19.33
2023-03-04T10:00:45.807Z,19.63
2023-03-04T10:03:18.657Z,17.70
2023-03-04T10:05:54.365Z,18.63
2023-03-04T10:08:36.689Z,17.30
2023-03-04T10:11:10.589Z,17.57
2023-03-04T10:13:44.619Z,17.33
2023-03-04T10:16:19.144Z,18.13
2023-03-04T10:18:53.813Z,16.53
2023-03-04T10:21:27.950Z,16.73
2023-03-04T10:23:57.181Z,17.87
2023-03-04T10:26:33.014Z,17.60
2023-03-04T10:29:03.012Z,18.27
2023-03-04T10:31:36.538Z,19.20
2023-03-04T10:34:07.055Z,18.43
2023-03-04T10:36:51.107Z,18.40
2023-03-04T10:39:20.873Z,20.13
2023-03-04T10:41:57.637Z,19.27
2023-03-04T10:44:26.145Z,18.90
2023-03-04T10:46:56.916Z,17.50
2023-03-04T10:49:28.121Z,20.10
2023-03-04T10:52:03.622Z,18.83
2023-03-04T10:54:37.802Z,19.00
2023-03-04T10:57:13.048Z,18.87
2023-03-04T10:59:53.369Z,17.37
2023-03-04T11:02:23.713Z,17.77
2023-03-04T11:04:55.994Z,17.20
2023-03-04T11:07:25.865Z,17.27
2023-03-04T11:09:55.978Z,16.00
2023-03-04T11:12:35.544Z,16.53
2023-03-04T11:15:04.184Z,16.40
2023-03-04T11:17:44.939Z,16.30
2023-03-04T11:20:31.915Z,17.57
2023-03-04T11:23:06.070Z,16.53
2023-03-04T11:25:36.676Z,14.77
2023-03-04T11:28:12.518Z,14.90
2023-03-04T11:30:44.284Z,14.67
2023-03-04T11:33:23.390Z,14.80
2023-03-04T11:36:17.718Z,14.13
2023-03-04T11:38:49.012Z,14.77
2023-03-04T11:41:22.114Z,15.27
2023-03-04T11:43:50.420Z,15.37
2023-03-04T11:47:01.554Z,15.93
2023-03-04T11:50:16.787Z,15.37
2023-03-04T11:53:12.354Z,15.60
2023-03-04T11:55:46.890Z,15.43
2023-03-04T11:58:42.665Z,15.80
2023-03-04T12:01:15.989Z,15.50
2023-03-04T12:04:09.214Z,14.87
2023-03-04T12:06:49.540Z,14.50
2023-03-04T12:09:38.300Z,14.53
2023-03-04T12:12:23.773Z,15.00
2023-03-04T12:15:02.094Z,14.90
2023-03-04T12:17:44.679Z,13.87
2023-03-04T12:20:45.792Z,13.97
2023-03-04T12:23:31.147Z,12.13
2023-03-04T12:26:05.137Z,13.23
2023-03-04T12:28:51.992Z,13.57
2023-03-04T12:31:38.872Z,13.00
2023-03-04T12:34:33.184Z,12.40
2023-03-04T12:37:12.826Z,12.57
2023-03-04T12:39:42.697Z,16.67
2023-03-04T12:42:22.286Z,13.23
2023-03-04T12:44:59.771Z,12.47
2023-03-04T12:47:37.973Z,12.27
2023-03-04T12:50:24.270Z,12.90
2023-03-04T12:53:02.730Z,12.83
2023-03-04T12:55:38.022Z,12.57
2023-03-04T12:58:08.058Z,11.70
2023-03-04T13:00:48.787Z,12.20
2023-03-04T13:03:22.930Z,11.17
2023-03-04T13:06:13.609Z,14.30
2023-03-04T13:08:52.529Z,12.20
2023-03-04T13:11:53.297Z,11.70
2023-03-04T13:14:35.582Z,12.07
2023-03-04T13:17:25.109Z,12.17
2023-03-04T13:19:57.231Z,12.10
2023-03-04T13:22:44.529Z,11.23
2023-03-04T13:25:47.047Z,11.87
2023-03-04T13:28:19.452Z,12.17
2023-03-04T13:31:26.612Z,12.00
2023-03-04T13:34:02.836Z,12.70
2023-03-04T13:37:00.006Z,11.73
2023-03-04T13:39:37.487Z,12.10
2023-03-04T13:42:26.033Z,11.87
2023-03-04T13:45:01.111Z,11.57
2023-03-04T13:47:41.454Z,12.43
2023-03-04T13:50:31.634Z,11.50
2023-03-04T13:53:02.625Z,12.43
2023-03-04T13:55:39.625Z,11.80
2023-03-04T13:58:19.088Z,13.07
2023-03-04T14:00:53.866Z,12.03
2023-03-04T14:03:24.961Z,12.87
2023-03-04T14:06:11.100Z,11.27
2023-03-04T14:08:38.814Z,12.27
2023-03-04T14:11:06.617Z,11.53
2023-03-04T14:13:34.387Z,11.50
2023-03-04T14:16:03.482Z,11.37
2023-03-04T14:18:31.333Z,11.40
2023-03-04T14:21:01.380Z,11.67
2023-03-04T14:23:31.881Z,11.40
2023-03-04T14:26:07.681Z,11.00
2023-03-04T14:28:43.946Z,11.13
2023-03-04T14:31:18.300Z,11.57
2023-03-04T14:33:49.158Z,11.60
2023-03-04T14:36:20.210Z,10.40
2023-03-04T14:38:54.269Z,11.23
2023-03-04T14:41:26.641Z,10.43
2023-03-04T14:44:04.863Z,10.80
2023-03-04T14:46:40.287Z,11.23
2023-03-04T14:49:12.271Z,10.43
2023-03-04T14:51:47.122Z,10.43
2023-03-04T14:54:33.726Z,10.70
2023-03-04T14:57:16.028Z,11.60
2023-03-04T14:59:43.761Z,11.60
2023-03-04T15:02:33.882Z,11.37
2023-03-04T15:05:16.602Z,11.70
2023-03-04T15:07:50.801Z,10.20
2023-03-04T15:10:23.144Z,10.03
2023-03-04T15:12:56.298Z,10.73
2023-03-04T15:15:44.825Z,11.17
2023-03-04T15:18:21.833Z,14.43
2023-03-04T15:20:58.867Z,11.40
2023-03-04T15:23:27.005Z,11.17
2023-03-04T15:25:57.521Z,11.17
2023-03-04T15:28:26.588Z,11.80
2023-03-04T15:30:54.657Z,12.37
2023-03-04T15:33:24.512Z,13.13
2023-03-04T15:35:57.603Z,11.67
2023-03-04T15:38:26.358Z,12.73
2023-03-04T15:40:55.049Z,11.70
2023-03-04T15:43:24.377Z,11.60
2023-03-04T15:45:53.417Z,11.23
2023-03-04T15:48:21.728Z,15.20
2023-03-04T15:50:56.463Z,14.27
2023-03-04T15:53:29.542Z,14.73
2023-03-04T15:55:57.555Z,13.03
2023-03-04T15:58:27.661Z,12.07
2023-03-04T16:00:56.691Z,11.53
2023-03-04T16:03:24.477Z,12.30
2023-03-04T16:05:53.760Z,15.77
2023-03-04T16:08:25.341Z,12.73
2023-03-04T16:10:53.781Z,13.10
2023-03-04T16:13:23.285Z,12.50
2023-03-04T16:15:54.981Z,12.03
2023-03-04T16:18:23.683Z,12.90
2023-03-04T16:20:53.667Z,12.17
2023-03-04T16:23:24.061Z,12.47
2023-03-04T16:25:55.019Z,13.87
2023-03-04T16:28:23.031Z,14.97
2023-03-04T16:30:57.460Z,12.53
2023-03-04T16:33:25.169Z,13.10
2023-03-04T16:35:56.919Z,12.77
2023-03-04T16:38:31.523Z,13.00
2023-03-04T16:41:09.064Z,12.90
2023-03-04T16:43:36.802Z,12.37
2023-03-04T16:46:04.554Z,11.60
2023-03-04T16:48:32.525Z,13.60
2023-03-04T16:51:04.586Z,12.77
2023-03-04T16:53:35.870Z,12.50
2023-03-04T16:56:09.431Z,12.80
2023-03-04T16:58:37.185Z,12.70
2023-03-04T17:01:05.798Z,15.53
2023-03-04T17:03:34.215Z,14.27
2023-03-04T17:06:03.352Z,12.77
2023-03-04T17:08:38.645Z,13.30
2023-03-04T17:11:09.742Z,14.00
2023-03-04T17:13:37.462Z,14.57
2023-03-04T17:16:05.552Z,13.53
2023-03-04T17:18:33.292Z,12.93
2023-03-04T17:21:08.568Z,12.70
2023-03-04T17:23:36.406Z,13.47
2023-03-04T17:26:07.124Z,12.70
2023-03-04T17:28:36.356Z,12.53
2023-03-04T17:31:09.802Z,16.40
2023-03-04T17:33:40.679Z,13.87
2023-03-04T17:36:12.299Z,13.17
2023-03-04T17:38:42.523Z,13.93
2023-03-04T17:41:13.281Z,13.53
2023-03-04T17:43:44.244Z,13.30
2023-03-04T17:46:14.311Z,13.90
2023-03-04T17:48:42.593Z,16.10
2023-03-04T17:51:12.543Z,22.23
2023-03-04T17:53:41.115Z,15.30
2023-03-04T17:56:11.759Z,13.90
2023-03-04T17:58:41.140Z,13.97
2023-03-04T18:01:20.647Z,14.60
2023-03-04T18:03:50.138Z,13.63
2023-03-04T18:06:25.694Z,14.50
2023-03-04T18:08:59.583Z,14.27
2023-03-04T18:11:28.558Z,14.57
2023-03-04T18:13:56.794Z,16.00
2023-03-04T18:16:27.022Z,15.00
2023-03-04T18:18:57.624Z,15.07
2023-03-04T18:21:28.112Z,14.80
2023-03-04T18:24:01.098Z,15.63
2023-03-04T18:26:31.635Z,15.37
2023-03-04T18:28:59.435Z,14.73
2023-03-04T18:31:34.489Z,15.57
2023-03-04T18:34:03.717Z,15.47
2023-03-04T18:36:36.325Z,18.10
2023-03-04T18:39:07.278Z,16.70
2023-03-04T18:41:35.129Z,15.43
2023-03-04T18:44:04.230Z,15.67
2023-03-04T18:46:38.771Z,15.03
2023-03-04T18:49:10.022Z,16.10
2023-03-04T18:51:47.748Z,16.03
2023-03-04T18:54:30.115Z,25.63
2023-03-04T18:57:03.154Z,16.20
2023-03-04T18:59:38.259Z,16.57
2023-03-04T19:02:37.287Z,15.77
2023-03-04T19:05:08.842Z,21.37
2023-03-04T19:07:37.997Z,16.07
2023-03-04T19:10:06.639Z,15.47
2023-03-04T19:12:34.811Z,16.37
2023-03-04T19:15:02.673Z,16.87
2023-03-04T19:17:32.630Z,15.73
2023-03-04T19:20:00.826Z,18.40
2023-03-04T19:22:28.504Z,21.60
2023-03-04T19:24:57.638Z,18.67
2023-03-04T19:27:25.373Z,16.80
2023-03-04T19:29:53.098Z,20.77
2023-03-04T19:32:20.801Z,22.00
2023-03-04T19:34:49.111Z,19.00
2023-03-04T19:37:17.467Z,18.17
2023-03-04T19:39:45.991Z,18.33
2023-03-04T19:42:15.100Z,17.67
2023-03-04T19:44:44.854Z,17.00
2023-03-04T19:47:13.024Z,19.13
2023-03-04T19:49:40.886Z,17.43
2023-03-04T19:52:08.802Z,18.00
2023-03-04T19:54:36.788Z,17.93
2023-03-04T19:57:04.679Z,19.07
2023-03-04T19:59:36.866Z,16.70
2023-03-04T20:02:04.722Z,19.90
2023-03-04T20:04:32.828Z,23.30
2023-03-04T20:07:00.553Z,18.47
2023-03-04T20:09:28.252Z,19.33
2023-03-04T20:11:59.139Z,19.40
2023-03-04T20:14:28.116Z,17.63
2023-03-04T20:17:00.534Z,17.73
2023-03-04T20:19:28.429Z,17.23
2023-03-04T20:21:56.343Z,17.50
2023-03-04T20:24:24.274Z,17.17
2023-03-04T20:26:52.998Z,17.67
2023-03-04T20:29:20.686Z,16.83
2023-03-04T20:31:49.035Z,20.87
2023-03-04T20:34:18.577Z,18.00
2023-03-04T20:36:46.393Z,18.20
2023-03-04T20:39:30.207Z,17.57
2023-03-04T20:41:59.058Z,17.43
2023-03-04T20:44:27.184Z,19.17
2023-03-04T20:46:54.921Z,18.60
2023-03-04T20:49:26.403Z,17.77
2023-03-04T20:51:55.821Z,17.77
2023-03-04T20:54:23.589Z,17.40
2023-03-04T20:56:51.534Z,18.17
2023-03-04T20:59:19.274Z,17.53
2023-03-04T21:01:47.892Z,17.50
2023-03-04T21:04:15.805Z,18.97
2023-03-04T21:06:47.262Z,17.30
2023-03-04T21:09:17.904Z,17.63
2023-03-04T21:11:46.297Z,17.13
2023-03-04T21:14:15.693Z,18.40
2023-03-04T21:16:43.922Z,18.87
2023-03-04T21:19:15.629Z,19.47
2023-03-04T21:21:45.118Z,18.53
2023-03-04T21:24:15.832Z,19.83
2023-03-04T21:26:45.195Z,18.60
2023-03-04T21:29:13.184Z,18.20
2023-03-04T21:31:44.503Z,19.63
2023-03-04T21:34:17.518Z,18.63
2023-03-04T21:36:49.654Z,18.93
2023-03-04T21:39:19.557Z,19.23
2023-03-04T21:41:47.674Z,17.63
2023-03-04T21:44:27.709Z,19.30
2023-03-04T21:46:57.002Z,19.37
2023-03-04T21:49:24.912Z,18.57
2023-03-04T21:51:54.197Z,19.57
2023-03-04T21:54:22.238Z,19.33
2023-03-04T21:56:51.428Z,19.47
2023-03-04T21:59:19.478Z,20.87
2023-03-04T22:01:47.481Z,21.50
2023-03-04T22:04:15.420Z,20.40
2023-03-04T22:06:43.165Z,20.30
2023-03-04T22:09:13.166Z,21.40
2023-03-04T22:11:41.147Z,22.00
2023-03-04T22:14:08.967Z,21.47
2023-03-04T22:16:48.936Z,20.87
2023-03-04T22:19:20.586Z,22.23
2023-03-04T22:21:48.386Z,22.67
2023-03-04T22:24:17.410Z,20.63
2023-03-04T22:26:45.133Z,22.97
2023-03-04T22:29:13.335Z,20.80
2023-03-04T22:31:41.186Z,21.40
2023-03-04T22:34:10.662Z,21.23
2023-03-04T22:36:40.232Z,21.53
2023-03-04T22:39:10.618Z,22.47
2023-03-04T22:41:39.804Z,21.83
2023-03-04T22:44:08.436Z,22.20
2023-03-04T22:46:38.942Z,22.50
2023-03-04T22:49:09.889Z,21.63
2023-03-04T22:51:38.528Z,21.27
2023-03-04T22:54:06.318Z,21.50
2023-03-04T22:56:36.333Z,21.97
2023-03-04T22:59:05.414Z,21.63
2023-03-04T23:01:33.169Z,21.00
2023-03-04T23:04:00.906Z,21.47
2023-03-04T23:06:30.301Z,22.57
2023-03-04T23:08:59.186Z,21.67
2023-03-04T23:11:28.885Z,21.17
2023-03-04T23:13:57.754Z,21.43
2023-03-04T23:16:27.776Z,21.70
2023-03-04T23:18:57.117Z,21.73
2023-03-04T23:21:28.006Z,22.67
2023-03-04T23:23:55.943Z,21.83
2023-03-04T23:26:25.322Z,20.40
2023-03-04T23:28:55.545Z,21.57
2023-03-04T23:31:23.572Z,20.80
2023-03-04T23:33:57.014Z,26.73
2023-03-04T23:36:29.416Z,70.10
2023-03-04T23:38:57.516Z,51.17
2023-03-04T23:41:26.583Z,35.00
2023-03-04T23:43:55.690Z,30.43
2023-03-04T23:46:24.290Z,23.93
2023-03-04T23:48:54.130Z,21.17
2023-03-04T23:51:23.667Z,24.37
2023-03-04T23:53:51.435Z,20.67
2023-03-04T23:56:20.893Z,23.63
2023-03-04T23:58:48.937Z,20.90
